sensor_id;sensor_type;location;lat;lon;timestamp;pressure;altitude;pressure_sealevel;temperature;humidity
59289;BME280;45056;47.602;9.886;2023-07-16T00:00:44;92987.91;;;24.14;56.64
59289;BME280;45056;47.602;9.886;2023-07-16T00:03:13;92995.38;;;24.05;57.03
59289;BME280;45056;47.602;9.886;2023-07-16T00:05:41;93009.31;;;24.00;57.44
59289;BME280;45056;47.602;9.886;2023-07-16T00:08:09;93012.94;;;23.95;57.48
59289;BME280;45056;47.602;9.886;2023-07-16T00:10:38;93018.84;;;23.85;57.66
59289;BME280;45056;47.602;9.886;2023-07-16T00:13:06;93012.13;;;23.81;57.74
59289;BME280;45056;47.602;9.886;2023-07-16T00:15:34;93040.94;;;23.77;57.79
59289;BME280;45056;47.602;9.886;2023-07-16T00:18:02;93052.34;;;23.74;58.06
59289;BME280;45056;47.602;9.886;2023-07-16T00:20:33;93048.91;;;23.68;58.21
59289;BME280;45056;47.602;9.886;2023-07-16T00:23:01;93041.63;;;23.65;58.47
59289;BME280;45056;47.602;9.886;2023-07-16T00:25:29;93050.25;;;23.61;58.76
59289;BME280;45056;47.602;9.886;2023-07-16T00:27:57;93049.78;;;23.57;59.03
59289;BME280;45056;47.602;9.886;2023-07-16T00:30:25;93052.34;;;23.55;59.17
59289;BME280;45056;47.602;9.886;2023-07-16T00:32:53;93049.34;;;23.53;59.48
59289;BME280;45056;47.602;9.886;2023-07-16T00:35:21;93035.00;;;23.48;59.37
59289;BME280;45056;47.602;9.886;2023-07-16T00:37:50;93033.56;;;23.42;59.44
59289;BME280;45056;47.602;9.886;2023-07-16T00:40:18;93042.72;;;23.37;59.36
59289;BME280;45056;47.602;9.886;2023-07-16T00:42:47;93023.34;;;23.31;59.45
59289;BME280;45056;47.602;9.886;2023-07-16T00:45:15;93012.81;;;23.24;59.69
59289;BME280;45056;47.602;9.886;2023-07-16T00:47:44;93038.63;;;23.18;59.74
59289;BME280;45056;47.602;9.886;2023-07-16T00:50:13;93043.50;;;23.12;59.99
59289;BME280;45056;47.602;9.886;2023-07-16T00:52:41;93061.22;;;23.03;60.47
59289;BME280;45056;47.602;9.886;2023-07-16T00:55:12;93059.09;;;22.90;60.50
59289;BME280;45056;47.602;9.886;2023-07-16T00:57:40;93058.41;;;22.84;60.86
59289;BME280;45056;47.602;9.886;2023-07-16T01:00:09;93068.81;;;22.78;60.88
59289;BME280;45056;47.602;9.886;2023-07-16T01:02:39;93065.31;;;22.72;61.26
59289;BME280;45056;47.602;9.886;2023-07-16T01:05:07;93069.44;;;22.65;61.42
59289;BME280;45056;47.602;9.886;2023-07-16T01:07:37;93069.97;;;22.58;61.58
59289;BME280;45056;47.602;9.886;2023-07-16T01:10:17;93060.50;;;22.47;61.77
59289;BME280;45056;47.602;9.886;2023-07-16T01:12:46;93071.13;;;22.38;61.87
59289;BME280;45056;47.602;9.886;2023-07-16T01:15:14;93070.91;;;22.30;62.26
59289;BME280;45056;47.602;9.886;2023-07-16T01:17:43;93059.91;;;22.24;62.41
59289;BME280;45056;47.602;9.886;2023-07-16T01:20:11;93066.69;;;22.23;62.71
59289;BME280;45056;47.602;9.886;2023-07-16T01:29:18;93075.13;;;22.06;64.46
59289;BME280;45056;47.602;9.886;2023-07-16T01:31:56;93070.41;;;21.95;64.99
59289;BME280;45056;47.602;9.886;2023-07-16T01:34:29;93060.41;;;21.81;64.98
59289;BME280;45056;47.602;9.886;2023-07-16T01:37:00;93066.78;;;21.70;65.10
59289;BME280;45056;47.602;9.886;2023-07-16T01:39:29;93077.13;;;21.58;64.81
59289;BME280;45056;47.602;9.886;2023-07-16T01:41:59;93083.47;;;21.47;64.75
59289;BME280;45056;47.602;9.886;2023-07-16T01:44:29;93089.78;;;21.36;64.67
59289;BME280;45056;47.602;9.886;2023-07-16T01:47:09;93106.16;;;21.28;64.55
59289;BME280;45056;47.602;9.886;2023-07-16T01:49:39;93114.97;;;21.27;64.59
59289;BME280;45056;47.602;9.886;2023-07-16T01:52:08;93116.00;;;21.24;64.32
59289;BME280;45056;47.602;9.886;2023-07-16T01:54:37;93119.50;;;21.18;63.39
59289;BME280;45056;47.602;9.886;2023-07-16T01:57:06;93124.84;;;21.05;63.16
59289;BME280;45056;47.602;9.886;2023-07-16T01:59:35;93137.69;;;20.91;63.38
59289;BME280;45056;47.602;9.886;2023-07-16T02:02:04;93146.72;;;20.80;63.60
59289;BME280;45056;47.602;9.886;2023-07-16T02:04:32;93141.19;;;20.69;64.04
59289;BME280;45056;47.602;9.886;2023-07-16T02:07:00;93146.97;;;20.54;64.39
59289;BME280;45056;47.602;9.886;2023-07-16T02:09:28;93157.75;;;20.40;64.88
59289;BME280;45056;47.602;9.886;2023-07-16T02:11:56;93162.53;;;20.28;65.70
59289;BME280;45056;47.602;9.886;2023-07-16T02:14:24;93162.25;;;20.21;66.07
59289;BME280;45056;47.602;9.886;2023-07-16T02:16:54;93155.97;;;20.14;66.16
59289;BME280;45056;47.602;9.886;2023-07-16T02:19:22;93150.16;;;20.12;66.28
59289;BME280;45056;47.602;9.886;2023-07-16T02:21:51;93172.00;;;20.10;66.41
59289;BME280;45056;47.602;9.886;2023-07-16T02:24:21;93161.72;;;20.11;66.27
59289;BME280;45056;47.602;9.886;2023-07-16T02:26:49;93172.25;;;20.12;66.31
59289;BME280;45056;47.602;9.886;2023-07-16T02:29:17;93160.72;;;20.14;66.09
59289;BME280;45056;47.602;9.886;2023-07-16T02:31:45;93154.19;;;20.17;65.84
59289;BME280;45056;47.602;9.886;2023-07-16T02:34:16;93149.16;;;20.21;65.79
59289;BME280;45056;47.602;9.886;2023-07-16T02:36:44;93159.22;;;20.24;65.53
59289;BME280;45056;47.602;9.886;2023-07-16T02:39:11;93156.72;;;20.26;65.36
59289;BME280;45056;47.602;9.886;2023-07-16T02:41:39;93155.19;;;20.25;65.20
59289;BME280;45056;47.602;9.886;2023-07-16T02:44:08;93163.25;;;20.23;65.18
59289;BME280;45056;47.602;9.886;2023-07-16T02:46:36;93182.84;;;20.20;65.15
59289;BME280;45056;47.602;9.886;2023-07-16T02:49:04;93186.34;;;20.14;65.47
59289;BME280;45056;47.602;9.886;2023-07-16T02:51:34;93180.78;;;20.03;65.71
59289;BME280;45056;47.602;9.886;2023-07-16T02:54:02;93194.03;;;19.93;66.26
59289;BME280;45056;47.602;9.886;2023-07-16T02:56:30;93194.75;;;19.88;66.45
59289;BME280;45056;47.602;9.886;2023-07-16T02:58:58;93192.25;;;19.90;66.68
59289;BME280;45056;47.602;9.886;2023-07-16T03:01:26;93188.03;;;19.95;66.55
59289;BME280;45056;47.602;9.886;2023-07-16T03:03:54;93184.28;;;20.03;66.28
59289;BME280;45056;47.602;9.886;2023-07-16T03:06:22;93187.81;;;20.10;66.31
59289;BME280;45056;47.602;9.886;2023-07-16T03:08:51;93181.31;;;20.13;66.33
59289;BME280;45056;47.602;9.886;2023-07-16T03:11:19;93177.28;;;20.14;65.74
59289;BME280;45056;47.602;9.886;2023-07-16T03:13:47;93174.78;;;20.16;65.55
59289;BME280;45056;47.602;9.886;2023-07-16T03:16:15;93191.34;;;20.16;64.97
59289;BME280;45056;47.602;9.886;2023-07-16T03:18:44;93187.31;;;20.11;65.06
59289;BME280;45056;47.602;9.886;2023-07-16T03:21:12;93183.56;;;20.09;64.93
59289;BME280;45056;47.602;9.886;2023-07-16T03:23:40;93183.31;;;20.07;65.06
59289;BME280;45056;47.602;9.886;2023-07-16T03:26:09;93180.28;;;20.04;65.09
59289;BME280;45056;47.602;9.886;2023-07-16T03:28:37;93193.56;;;20.06;65.07
59289;BME280;45056;47.602;9.886;2023-07-16T03:31:05;93189.56;;;20.07;65.23
59289;BME280;45056;47.602;9.886;2023-07-16T03:33:33;93179.28;;;20.08;64.97
59289;BME280;45056;47.602;9.886;2023-07-16T03:36:01;93167.47;;;20.07;65.24
59289;BME280;45056;47.602;9.886;2023-07-16T03:38:30;93168.25;;;20.08;64.85
59289;BME280;45056;47.602;9.886;2023-07-16T03:40:58;93176.28;;;20.06;64.95
59289;BME280;45056;47.602;9.886;2023-07-16T03:43:28;93174.75;;;20.04;64.94
59289;BME280;45056;47.602;9.886;2023-07-16T03:46:00;93177.78;;;20.07;64.94
59289;BME280;45056;47.602;9.886;2023-07-16T03:48:28;93190.81;;;20.06;64.67
59289;BME280;45056;47.602;9.886;2023-07-16T03:50:57;93209.16;;;20.03;64.62
59289;BME280;45056;47.602;9.886;2023-07-16T03:53:25;93196.84;;;20.04;64.75
59289;BME280;45056;47.602;9.886;2023-07-16T03:55:53;93187.31;;;20.06;63.99
59289;BME280;45056;47.602;9.886;2023-07-16T03:58:21;93182.78;;;20.02;63.37
59289;BME280;45056;47.602;9.886;2023-07-16T04:00:51;93189.31;;;19.99;62.63
59289;BME280;45056;47.602;9.886;2023-07-16T04:03:21;93174.72;;;19.99;62.54
59289;BME280;45056;47.602;9.886;2023-07-16T04:05:50;93167.97;;;20.00;61.99
59289;BME280;45056;47.602;9.886;2023-07-16T04:08:18;93187.28;;;20.00;62.12
59289;BME280;45056;47.602;9.886;2023-07-16T04:10:46;93198.06;;;19.98;61.49
59289;BME280;45056;47.602;9.886;2023-07-16T04:13:14;93194.28;;;19.95;61.79
59289;BME280;45056;47.602;9.886;2023-07-16T04:15:43;93192.31;;;19.96;61.88
59289;BME280;45056;47.602;9.886;2023-07-16T04:18:22;93197.06;;;19.95;61.57
59289;BME280;45056;47.602;9.886;2023-07-16T04:20:56;93202.56;;;19.95;61.46
59289;BME280;45056;47.602;9.886;2023-07-16T04:23:31;93202.84;;;19.97;61.24
59289;BME280;45056;47.602;9.886;2023-07-16T04:26:05;93208.38;;;19.97;60.93
59289;BME280;45056;47.602;9.886;2023-07-16T04:28:33;93222.69;;;19.96;61.10
59289;BME280;45056;47.602;9.886;2023-07-16T04:31:01;93220.41;;;19.94;61.08
59289;BME280;45056;47.602;9.886;2023-07-16T04:33:34;93231.19;;;19.92;60.82
59289;BME280;45056;47.602;9.886;2023-07-16T04:36:06;93230.16;;;19.89;60.51
59289;BME280;45056;47.602;9.886;2023-07-16T04:38:35;93228.66;;;19.88;60.74
59289;BME280;45056;47.602;9.886;2023-07-16T04:41:03;93224.38;;;19.87;60.54
59289;BME280;45056;47.602;9.886;2023-07-16T04:43:36;93227.88;;;19.88;60.30
59289;BME280;45056;47.602;9.886;2023-07-16T04:46:07;93227.13;;;19.87;60.30
59289;BME280;45056;47.602;9.886;2023-07-16T04:48:37;93233.41;;;19.88;59.94
59289;BME280;45056;47.602;9.886;2023-07-16T04:51:05;93247.47;;;19.90;59.80
59289;BME280;45056;47.602;9.886;2023-07-16T04:53:34;93260.53;;;19.89;59.60
59289;BME280;45056;47.602;9.886;2023-07-16T04:56:02;93257.50;;;19.87;59.41
59289;BME280;45056;47.602;9.886;2023-07-16T04:58:39;93256.75;;;19.87;60.21
59289;BME280;45056;47.602;9.886;2023-07-16T05:01:07;93252.47;;;19.86;60.22
59289;BME280;45056;47.602;9.886;2023-07-16T05:03:38;93255.75;;;19.84;59.81
59289;BME280;45056;47.602;9.886;2023-07-16T05:06:06;93243.66;;;19.82;59.58
59289;BME280;45056;47.602;9.886;2023-07-16T05:08:35;93258.97;;;19.83;59.58
59289;BME280;45056;47.602;9.886;2023-07-16T05:11:03;93258.50;;;19.84;60.00
59289;BME280;45056;47.602;9.886;2023-07-16T05:13:31;93271.53;;;19.84;60.05
59289;BME280;45056;47.602;9.886;2023-07-16T05:16:00;93270.03;;;19.83;59.79
59289;BME280;45056;47.602;9.886;2023-07-16T05:18:30;93267.00;;;19.81;59.49
59289;BME280;45056;47.602;9.886;2023-07-16T05:21:02;93276.53;;;19.80;60.17
59289;BME280;45056;47.602;9.886;2023-07-16T05:23:31;93262.47;;;19.78;60.00
59289;BME280;45056;47.602;9.886;2023-07-16T05:25:59;93258.94;;;19.77;59.90
59289;BME280;45056;47.602;9.886;2023-07-16T05:28:27;93265.97;;;19.78;59.93
59289;BME280;45056;47.602;9.886;2023-07-16T05:31:24;93256.19;;;19.77;60.08
59289;BME280;45056;47.602;9.886;2023-07-16T05:35:04;93260.19;;;19.76;59.66
59289;BME280;45056;47.602;9.886;2023-07-16T05:37:35;93270.97;;;19.74;59.75
59289;BME280;45056;47.602;9.886;2023-07-16T05:47:05;93266.22;;;19.74;59.75
59289;BME280;45056;47.602;9.886;2023-07-16T05:49:34;93259.44;;;19.75;59.32
59289;BME280;45056;47.602;9.886;2023-07-16T05:52:03;93255.44;;;19.77;59.20
59289;BME280;45056;47.602;9.886;2023-07-16T05:54:36;93248.94;;;19.80;59.59
59289;BME280;45056;47.602;9.886;2023-07-16T05:57:25;93240.91;;;19.82;59.41
59289;BME280;45056;47.602;9.886;2023-07-16T06:00:03;93243.94;;;19.84;58.93
59289;BME280;45056;47.602;9.886;2023-07-16T06:02:51;93245.94;;;19.83;58.47
59289;BME280;45056;47.602;9.886;2023-07-16T06:05:22;93245.44;;;19.85;58.79
59289;BME280;45056;47.602;9.886;2023-07-16T06:07:59;93242.19;;;19.86;58.78
59289;BME280;45056;47.602;9.886;2023-07-16T06:10:52;93250.22;;;19.90;59.10
59289;BME280;45056;47.602;9.886;2023-07-16T06:13:21;93250.78;;;19.94;59.29
59289;BME280;45056;47.602;9.886;2023-07-16T06:16:26;93250.53;;;19.98;59.37
59289;BME280;45056;47.602;9.886;2023-07-16T06:19:09;93257.09;;;20.00;59.21
59289;BME280;45056;47.602;9.886;2023-07-16T06:22:31;93249.81;;;20.03;58.74
59289;BME280;45056;47.602;9.886;2023-07-16T06:25:39;93249.06;;;20.08;59.04
59289;BME280;45056;47.602;9.886;2023-07-16T06:28:41;93256.13;;;20.15;59.40
59289;BME280;45056;47.602;9.886;2023-07-16T06:43:43;93226.31;;;20.36;58.58
59289;BME280;45056;47.602;9.886;2023-07-16T06:55:01;93210.25;;;20.57;57.54
59289;BME280;45056;47.602;9.886;2023-07-16T06:57:53;93201.00;;;20.60;57.75
59289;BME280;45056;47.602;9.886;2023-07-16T07:00:22;93202.50;;;20.61;57.55
59289;BME280;45056;47.602;9.886;2023-07-16T07:15:10;93171.56;;;20.57;56.49
59289;BME280;45056;47.602;9.886;2023-07-16T07:17:39;93187.19;;;20.60;57.02
59289;BME280;45056;47.602;9.886;2023-07-16T07:20:10;93175.88;;;20.70;57.53
59289;BME280;45056;47.602;9.886;2023-07-16T07:22:39;93184.69;;;20.80;56.83
59289;BME280;45056;47.602;9.886;2023-07-16T07:25:08;93185.44;;;20.92;56.21
59289;BME280;45056;47.602;9.886;2023-07-16T07:27:36;93193.97;;;21.05;56.71
59289;BME280;45056;47.602;9.886;2023-07-16T07:30:05;93190.94;;;21.14;57.01
59289;BME280;45056;47.602;9.886;2023-07-16T07:32:37;93187.66;;;21.27;57.66
59289;BME280;45056;47.602;9.886;2023-07-16T07:35:06;93187.66;;;21.39;57.12
59289;BME280;45056;47.602;9.886;2023-07-16T07:37:34;93178.84;;;21.46;56.41
59289;BME280;45056;47.602;9.886;2023-07-16T07:40:03;93177.28;;;21.51;55.48
59289;BME280;45056;47.602;9.886;2023-07-16T07:42:31;93175.53;;;21.53;54.77
59289;BME280;45056;47.602;9.886;2023-07-16T07:44:59;93185.59;;;21.56;54.77
59289;BME280;45056;47.602;9.886;2023-07-16T07:47:27;93186.84;;;21.61;54.78
59289;BME280;45056;47.602;9.886;2023-07-16T07:49:57;93193.38;;;21.69;54.90
59289;BME280;45056;47.602;9.886;2023-07-16T07:52:27;93185.81;;;21.75;55.54
59289;BME280;45056;47.602;9.886;2023-07-16T07:54:55;93186.53;;;21.82;55.66
59289;BME280;45056;47.602;9.886;2023-07-16T07:57:23;93178.72;;;21.86;55.00
59289;BME280;45056;47.602;9.886;2023-07-16T08:00:09;93181.22;;;21.84;54.90
59289;BME280;45056;47.602;9.886;2023-07-16T08:02:38;93182.53;;;21.77;54.51
59289;BME280;45056;47.602;9.886;2023-07-16T08:05:08;93189.34;;;21.65;55.41
59289;BME280;45056;47.602;9.886;2023-07-16T08:07:43;93179.56;;;21.58;55.92
59289;BME280;45056;47.602;9.886;2023-07-16T08:10:11;93179.81;;;21.60;56.12
59289;BME280;45056;47.602;9.886;2023-07-16T08:13:21;93173.75;;;21.61;55.81
59289;BME280;45056;47.602;9.886;2023-07-16T08:16:00;93166.47;;;21.64;55.38
59289;BME280;45056;47.602;9.886;2023-07-16T08:18:29;93176.53;;;21.67;55.52
59289;BME280;45056;47.602;9.886;2023-07-16T08:21:04;93177.25;;;21.73;55.83
59289;BME280;45056;47.602;9.886;2023-07-16T08:23:35;93168.16;;;21.79;55.79
59289;BME280;45056;47.602;9.886;2023-07-16T08:26:05;93163.31;;;21.96;55.74
59289;BME280;45056;47.602;9.886;2023-07-16T08:28:35;93177.00;;;22.30;54.88
59289;BME280;45056;47.602;9.886;2023-07-16T08:31:03;93169.38;;;22.48;54.40
59289;BME280;45056;47.602;9.886;2023-07-16T08:33:34;93158.66;;;22.63;54.39
59289;BME280;45056;47.602;9.886;2023-07-16T08:36:15;93162.91;;;22.70;54.34
59289;BME280;45056;47.602;9.886;2023-07-16T08:38:43;93152.53;;;22.71;54.23
59289;BME280;45056;47.602;9.886;2023-07-16T08:41:11;93156.09;;;22.71;53.86
59289;BME280;45056;47.602;9.886;2023-07-16T08:43:40;93154.63;;;22.65;53.03
59289;BME280;45056;47.602;9.886;2023-07-16T08:46:09;93157.47;;;22.53;53.18
59289;BME280;45056;47.602;9.886;2023-07-16T08:48:37;93156.00;;;22.46;53.31
59289;BME280;45056;47.602;9.886;2023-07-16T08:51:06;93161.28;;;22.44;53.61
59289;BME280;45056;47.602;9.886;2023-07-16T08:53:38;93169.38;;;22.48;53.95
59289;BME280;45056;47.602;9.886;2023-07-16T08:56:06;93162.78;;;22.51;54.18
59289;BME280;45056;47.602;9.886;2023-07-16T08:58:36;93153.69;;;22.56;54.67
59289;BME280;45056;47.602;9.886;2023-07-16T09:01:07;93155.91;;;22.58;54.43
59289;BME280;45056;47.602;9.886;2023-07-16T09:03:36;93154.66;;;22.59;54.39
59289;BME280;45056;47.602;9.886;2023-07-16T09:06:05;93156.38;;;22.62;54.26
59289;BME280;45056;47.602;9.886;2023-07-16T09:08:33;93151.09;;;22.64;54.28
59289;BME280;45056;47.602;9.886;2023-07-16T09:11:02;93157.63;;;22.67;54.28
59289;BME280;45056;47.602;9.886;2023-07-16T09:13:31;93154.59;;;22.70;54.38
59289;BME280;45056;47.602;9.886;2023-07-16T09:15:59;93154.00;;;22.77;54.24
59289;BME280;45056;47.602;9.886;2023-07-16T09:18:27;93162.31;;;22.83;53.94
59289;BME280;45056;47.602;9.886;2023-07-16T09:20:56;93160.25;;;22.84;53.35
59289;BME280;45056;47.602;9.886;2023-07-16T09:23:25;93164.53;;;22.85;53.28
59289;BME280;45056;47.602;9.886;2023-07-16T09:25:54;93168.31;;;22.87;52.68
59289;BME280;45056;47.602;9.886;2023-07-16T09:28:24;93170.63;;;22.83;52.73
59289;BME280;45056;47.602;9.886;2023-07-16T09:30:53;93173.41;;;22.83;52.95
59289;BME280;45056;47.602;9.886;2023-07-16T09:33:22;93180.94;;;22.83;53.16
59289;BME280;45056;47.602;9.886;2023-07-16T09:35:52;93181.47;;;22.81;52.95
59289;BME280;45056;47.602;9.886;2023-07-16T09:38:20;93177.94;;;22.81;52.74
59289;BME280;45056;47.602;9.886;2023-07-16T09:40:52;93166.34;;;22.82;52.79
59289;BME280;45056;47.602;9.886;2023-07-16T09:43:21;93174.66;;;22.82;53.11
59289;BME280;45056;47.602;9.886;2023-07-16T09:45:51;93189.28;;;22.83;52.95
59289;BME280;45056;47.602;9.886;2023-07-16T09:48:19;93194.06;;;22.82;52.78
59289;BME280;45056;47.602;9.886;2023-07-16T09:50:50;93186.00;;;22.84;52.68
59289;BME280;45056;47.602;9.886;2023-07-16T09:53:21;93177.59;;;22.90;52.74
59289;BME280;45056;47.602;9.886;2023-07-16T09:55:49;93168.75;;;22.97;53.28
59289;BME280;45056;47.602;9.886;2023-07-16T09:58:21;93162.09;;;23.06;53.59
59289;BME280;45056;47.602;9.886;2023-07-16T10:00:53;93175.41;;;23.13;53.60
59289;BME280;45056;47.602;9.886;2023-07-16T10:03:22;93175.13;;;23.17;52.86
59289;BME280;45056;47.602;9.886;2023-07-16T10:05:50;93178.34;;;23.21;52.87
59289;BME280;45056;47.602;9.886;2023-07-16T10:08:20;93183.88;;;23.27;53.27
59289;BME280;45056;47.602;9.886;2023-07-16T10:10:53;93192.44;;;23.29;53.04
59289;BME280;45056;47.602;9.886;2023-07-16T10:13:24;93198.22;;;23.31;53.05
59289;BME280;45056;47.602;9.886;2023-07-16T10:15:55;93191.69;;;23.28;53.28
59289;BME280;45056;47.602;9.886;2023-07-16T10:18:25;93189.16;;;23.30;53.17
59289;BME280;45056;47.602;9.886;2023-07-16T10:21:01;93179.78;;;23.33;52.20
59289;BME280;45056;47.602;9.886;2023-07-16T10:23:39;93171.16;;;23.37;51.96
59289;BME280;45056;47.602;9.886;2023-07-16T10:26:13;93175.69;;;23.40;52.11
59289;BME280;45056;47.602;9.886;2023-07-16T10:28:43;93177.19;;;23.41;51.94
59289;BME280;45056;47.602;9.886;2023-07-16T10:31:21;93177.88;;;23.47;51.49
59289;BME280;45056;47.602;9.886;2023-07-16T10:34:00;93168.97;;;23.55;51.41
59289;BME280;45056;47.602;9.886;2023-07-16T10:36:37;93166.66;;;23.59;51.31
59289;BME280;45056;47.602;9.886;2023-07-16T10:39:05;93158.03;;;23.62;51.05
59289;BME280;45056;47.602;9.886;2023-07-16T10:41:34;93156.22;;;23.65;50.98
59289;BME280;45056;47.602;9.886;2023-07-16T10:44:03;93156.22;;;23.65;51.34
59289;BME280;45056;47.602;9.886;2023-07-16T10:46:33;93160.50;;;23.66;50.99
59289;BME280;45056;47.602;9.886;2023-07-16T10:49:01;93159.47;;;23.69;50.00
59289;BME280;45056;47.602;9.886;2023-07-16T10:51:30;93170.06;;;23.71;49.84
59289;BME280;45056;47.602;9.886;2023-07-16T10:53:58;93168.78;;;23.72;50.21
59289;BME280;45056;47.602;9.886;2023-07-16T10:56:26;93166.91;;;23.80;49.01
59289;BME280;45056;47.602;9.886;2023-07-16T10:58:54;93168.34;;;23.87;48.97
59289;BME280;45056;47.602;9.886;2023-07-16T11:01:22;93169.25;;;23.95;49.34
59289;BME280;45056;47.602;9.886;2023-07-16T11:03:52;93182.00;;;24.10;48.83
59289;BME280;45056;47.602;9.886;2023-07-16T11:06:20;93185.69;;;24.18;48.72
59289;BME280;45056;47.602;9.886;2023-07-16T11:08:48;93193.88;;;24.29;48.69
59289;BME280;45056;47.602;9.886;2023-07-16T11:11:16;93185.63;;;24.43;48.77
59289;BME280;45056;47.602;9.886;2023-07-16T11:13:44;93187.72;;;24.56;48.39
59289;BME280;45056;47.602;9.886;2023-07-16T11:16:12;93193.94;;;24.62;47.49
59289;BME280;45056;47.602;9.886;2023-07-16T11:18:43;93195.44;;;24.63;47.72
59289;BME280;45056;47.602;9.886;2023-07-16T11:21:14;93194.59;;;24.68;47.59
59289;BME280;45056;47.602;9.886;2023-07-16T11:23:47;93183.19;;;24.72;47.26
59289;BME280;45056;47.602;9.886;2023-07-16T11:26:15;93178.81;;;24.76;47.40
59289;BME280;45056;47.602;9.886;2023-07-16T11:28:51;93176.59;;;24.75;47.53
59289;BME280;45056;47.602;9.886;2023-07-16T11:31:43;93182.88;;;24.75;47.81
59289;BME280;45056;47.602;9.886;2023-07-16T11:34:25;93185.59;;;24.81;47.30
59289;BME280;45056;47.602;9.886;2023-07-16T11:37:10;93180.38;;;24.91;47.60
59289;BME280;45056;47.602;9.886;2023-07-16T11:39:45;93170.78;;;25.05;48.27
59289;BME280;45056;47.602;9.886;2023-07-16T11:42:14;93178.94;;;25.17;47.81
59289;BME280;45056;47.602;9.886;2023-07-16T11:44:50;93176.16;;;25.17;46.92
59289;BME280;45056;47.602;9.886;2023-07-16T11:47:18;93174.53;;;25.08;46.90
59289;BME280;45056;47.602;9.886;2023-07-16T11:49:48;93178.91;;;25.03;46.71
59289;BME280;45056;47.602;9.886;2023-07-16T11:52:21;93169.81;;;25.03;46.36
59289;BME280;45056;47.602;9.886;2023-07-16T11:54:51;93170.78;;;25.05;46.41
59289;BME280;45056;47.602;9.886;2023-07-16T11:57:20;93172.50;;;25.09;46.33
59289;BME280;45056;47.602;9.886;2023-07-16T11:59:48;93168.13;;;25.13;46.87
59289;BME280;45056;47.602;9.886;2023-07-16T12:02:17;93169.84;;;25.16;46.75
59289;BME280;45056;47.602;9.886;2023-07-16T12:04:45;93174.56;;;25.21;46.35
59289;BME280;45056;47.602;9.886;2023-07-16T12:07:14;93172.53;;;25.22;45.48
59289;BME280;45056;47.602;9.886;2023-07-16T12:09:44;93168.97;;;25.21;45.78
59289;BME280;45056;47.602;9.886;2023-07-16T12:12:12;93168.69;;;25.25;46.14
59289;BME280;45056;47.602;9.886;2023-07-16T12:14:41;93166.13;;;25.27;45.61
59289;BME280;45056;47.602;9.886;2023-07-16T12:17:09;93171.91;;;25.29;45.29
59289;BME280;45056;47.602;9.886;2023-07-16T12:19:37;93169.03;;;25.35;45.54
59289;BME280;45056;47.602;9.886;2023-07-16T12:22:05;93180.91;;;25.35;45.47
59289;BME280;45056;47.602;9.886;2023-07-16T12:24:34;93169.31;;;25.31;45.54
59289;BME280;45056;47.602;9.886;2023-07-16T12:27:37;93161.53;;;25.30;46.60
59289;BME280;45056;47.602;9.886;2023-07-16T12:30:06;93161.53;;;25.30;46.86
59289;BME280;45056;47.602;9.886;2023-07-16T12:32:35;93170.09;;;25.32;46.83
59289;BME280;45056;47.602;9.886;2023-07-16T12:35:04;93165.69;;;25.36;45.54
59289;BME280;45056;47.602;9.886;2023-07-16T12:37:32;93165.28;;;25.46;44.78
59289;BME280;45056;47.602;9.886;2023-07-16T12:40:00;93164.13;;;25.55;44.74
59289;BME280;45056;47.602;9.886;2023-07-16T12:42:29;93156.94;;;25.59;44.18
59289;BME280;45056;47.602;9.886;2023-07-16T12:45:00;93155.34;;;25.64;44.61
59289;BME280;45056;47.602;9.886;2023-07-16T12:47:28;93156.19;;;25.72;45.26
59289;BME280;45056;47.602;9.886;2023-07-16T12:49:56;93157.06;;;25.81;45.05
59289;BME280;45056;47.602;9.886;2023-07-16T12:52:25;93157.47;;;25.85;44.38
59289;BME280;45056;47.602;9.886;2023-07-16T12:54:53;93167.88;;;25.84;44.08
59289;BME280;45056;47.602;9.886;2023-07-16T12:57:21;93169.69;;;25.82;43.74
59289;BME280;45056;47.602;9.886;2023-07-16T12:59:49;93170.03;;;25.78;44.01
59289;BME280;45056;47.602;9.886;2023-07-16T13:02:18;93164.88;;;25.82;43.17
59289;BME280;45056;47.602;9.886;2023-07-16T13:04:47;93164.22;;;25.89;42.77
59289;BME280;45056;47.602;9.886;2023-07-16T13:07:15;93167.78;;;25.90;43.46
59289;BME280;45056;47.602;9.886;2023-07-16T13:09:43;93173.88;;;25.88;43.20
59289;BME280;45056;47.602;9.886;2023-07-16T13:12:11;93173.13;;;25.88;43.58
59289;BME280;45056;47.602;9.886;2023-07-16T13:14:40;93169.50;;;25.93;44.04
59289;BME280;45056;47.602;9.886;2023-07-16T13:17:08;93166.34;;;25.97;44.23
59289;BME280;45056;47.602;9.886;2023-07-16T13:19:39;93165.84;;;25.98;44.05
59289;BME280;45056;47.602;9.886;2023-07-16T13:22:07;93167.66;;;25.96;42.43
59289;BME280;45056;47.602;9.886;2023-07-16T13:24:35;93157.06;;;25.94;42.18
59289;BME280;45056;47.602;9.886;2023-07-16T13:27:05;93163.38;;;25.95;41.39
59289;BME280;45056;47.602;9.886;2023-07-16T13:29:36;93165.84;;;25.98;41.74
59289;BME280;45056;47.602;9.886;2023-07-16T13:32:05;93163.78;;;25.99;42.04
59289;BME280;45056;47.602;9.886;2023-07-16T13:34:33;93157.88;;;26.02;42.53
59289;BME280;45056;47.602;9.886;2023-07-16T13:37:03;93157.03;;;26.07;42.88
59289;BME280;45056;47.602;9.886;2023-07-16T13:39:31;93160.78;;;26.10;42.66
59289;BME280;45056;47.602;9.886;2023-07-16T13:41:59;93165.28;;;26.13;43.05
59289;BME280;45056;47.602;9.886;2023-07-16T13:44:27;93167.50;;;26.15;42.68
59289;BME280;45056;47.602;9.886;2023-07-16T13:46:55;93167.97;;;26.19;43.18
59289;BME280;45056;47.602;9.886;2023-07-16T13:49:23;93163.25;;;26.27;43.04
59289;BME280;45056;47.602;9.886;2023-07-16T13:51:52;93165.25;;;26.27;42.77
59289;BME280;45056;47.602;9.886;2023-07-16T13:54:21;93158.94;;;26.26;43.86
59289;BME280;45056;47.602;9.886;2023-07-16T13:56:50;93166.44;;;26.31;44.31
59289;BME280;45056;47.602;9.886;2023-07-16T13:59:18;93158.16;;;26.39;44.30
59289;BME280;45056;47.602;9.886;2023-07-16T14:01:46;93156.63;;;26.52;44.02
59289;BME280;45056;47.602;9.886;2023-07-16T14:04:14;93154.44;;;26.58;43.94
59289;BME280;45056;47.602;9.886;2023-07-16T14:06:49;93157.22;;;26.58;43.64